sensor_id;sensor_type;location;lat;lon;timestamp;temperature;humidity
12164;DHT22;6145;50.192;10.064;2023-04-29T00:02:10;12.70;85.90
12164;DHT22;6145;50.192;10.064;2023-04-29T00:04:37;12.70;85.60
12164;DHT22;6145;50.192;10.064;2023-04-29T00:07:06;12.70;85.80
12164;DHT22;6145;50.192;10.064;2023-04-29T00:09:33;12.60;85.40
12164;DHT22;6145;50.192;10.064;2023-04-29T00:12:00;12.80;85.30
12164;DHT22;6145;50.192;10.064;2023-04-29T00:14:27;12.60;85.10
12164;DHT22;6145;50.192;10.064;2023-04-29T00:16:54;13.10;85.40
12164;DHT22;6145;50.192;10.064;2023-04-29T00:19:23;12.60;84.90
12164;DHT22;6145;50.192;10.064;2023-04-29T00:21:49;12.50;84.80
12164;DHT22;6145;50.192;10.064;2023-04-29T00:24:16;12.90;85.10
12164;DHT22;6145;50.192;10.064;2023-04-29T00:26:43;13.00;85.30
12164;DHT22;6145;50.192;10.064;2023-04-29T00:29:10;12.40;84.50
12164;DHT22;6145;50.192;10.064;2023-04-29T00:31:37;12.60;84.80
12164;DHT22;6145;50.192;10.064;2023-04-29T00:34:03;12.30;84.50
12164;DHT22;6145;50.192;10.064;2023-04-29T00:36:31;12.20;84.60
12164;DHT22;6145;50.192;10.064;2023-04-29T00:38:58;12.30;85.10
12164;DHT22;6145;50.192;10.064;2023-04-29T00:41:25;12.90;85.70
12164;DHT22;6145;50.192;10.064;2023-04-29T00:43:52;12.10;85.00
12164;DHT22;6145;50.192;10.064;2023-04-29T00:46:19;12.10;85.30
12164;DHT22;6145;50.192;10.064;2023-04-29T00:48:45;12.50;85.80
12164;DHT22;6145;50.192;10.064;2023-04-29T00:51:12;12.00;85.40
12164;DHT22;6145;50.192;10.064;2023-04-29T00:53:41;12.00;85.60
12164;DHT22;6145;50.192;10.064;2023-04-29T00:56:08;11.90;85.40
12164;DHT22;6145;50.192;10.064;2023-04-29T00:58:35;11.90;85.40
12164;DHT22;6145;50.192;10.064;2023-04-29T01:01:03;11.90;85.30
12164;DHT22;6145;50.192;10.064;2023-04-29T01:03:31;11.90;85.30
12164;DHT22;6145;50.192;10.064;2023-04-29T01:06:05;11.80;85.10
12164;DHT22;6145;50.192;10.064;2023-04-29T01:08:43;11.80;85.50
12164;DHT22;6145;50.192;10.064;2023-04-29T01:11:15;11.80;85.30
12164;DHT22;6145;50.192;10.064;2023-04-29T01:13:49;13.30;86.70
12164;DHT22;6145;50.192;10.064;2023-04-29T01:16:22;11.70;85.00
12164;DHT22;6145;50.192;10.064;2023-04-29T01:18:54;11.70;84.80
12164;DHT22;6145;50.192;10.064;2023-04-29T01:21:21;12.80;85.80
12164;DHT22;6145;50.192;10.064;2023-04-29T01:23:49;11.60;84.60
12164;DHT22;6145;50.192;10.064;2023-04-29T01:26:20;11.60;84.50
12164;DHT22;6145;50.192;10.064;2023-04-29T01:28:54;11.60;84.60
12164;DHT22;6145;50.192;10.064;2023-04-29T01:31:26;11.60;84.90
12164;DHT22;6145;50.192;10.064;2023-04-29T01:34:04;11.50;84.80
12164;DHT22;6145;50.192;10.064;2023-04-29T01:36:40;11.50;85.10
12164;DHT22;6145;50.192;10.064;2023-04-29T01:39:15;11.40;85.30
12164;DHT22;6145;50.192;10.064;2023-04-29T01:41:43;11.30;85.50
12164;DHT22;6145;50.192;10.064;2023-04-29T01:44:14;11.30;85.90
12164;DHT22;6145;50.192;10.064;2023-04-29T01:46:43;11.20;86.40
12164;DHT22;6145;50.192;10.064;2023-04-29T01:49:11;11.10;86.50
12164;DHT22;6145;50.192;10.064;2023-04-29T01:51:38;11.10;87.20
12164;DHT22;6145;50.192;10.064;2023-04-29T01:54:05;11.10;86.30
12164;DHT22;6145;50.192;10.064;2023-04-29T01:56:33;11.10;86.10
12164;DHT22;6145;50.192;10.064;2023-04-29T01:59:00;11.10;85.90
12164;DHT22;6145;50.192;10.064;2023-04-29T02:01:27;11.90;87.00
12164;DHT22;6145;50.192;10.064;2023-04-29T02:03:54;11.90;86.90
12164;DHT22;6145;50.192;10.064;2023-04-29T02:06:20;11.00;86.40
12164;DHT22;6145;50.192;10.064;2023-04-29T02:08:48;11.00;86.80
12164;DHT22;6145;50.192;10.064;2023-04-29T02:11:15;10.90;87.20
12164;DHT22;6145;50.192;10.064;2023-04-29T02:13:43;11.60;88.30
12164;DHT22;6145;50.192;10.064;2023-04-29T02:16:11;11.40;88.50
12164;DHT22;6145;50.192;10.064;2023-04-29T02:18:39;10.80;88.70
12164;DHT22;6145;50.192;10.064;2023-04-29T02:21:06;10.80;89.40
12164;DHT22;6145;50.192;10.064;2023-04-29T02:23:33;10.70;90.10
12164;DHT22;6145;50.192;10.064;2023-04-29T02:26:02;10.60;90.20
12164;DHT22;6145;50.192;10.064;2023-04-29T02:28:30;10.60;90.50
12164;DHT22;6145;50.192;10.064;2023-04-29T02:30:58;10.60;90.60
12164;DHT22;6145;50.192;10.064;2023-04-29T02:33:25;10.60;90.60
12164;DHT22;6145;50.192;10.064;2023-04-29T02:35:52;10.70;90.70
12164;DHT22;6145;50.192;10.064;2023-04-29T02:38:19;10.70;90.60
12164;DHT22;6145;50.192;10.064;2023-04-29T02:40:46;10.70;90.70
12164;DHT22;6145;50.192;10.064;2023-04-29T02:43:13;10.70;90.80
12164;DHT22;6145;50.192;10.064;2023-04-29T02:45:40;10.70;90.80
12164;DHT22;6145;50.192;10.064;2023-04-29T02:48:08;10.70;90.90
12164;DHT22;6145;50.192;10.064;2023-04-29T02:50:35;10.70;91.00
12164;DHT22;6145;50.192;10.064;2023-04-29T02:53:01;10.70;90.90
12164;DHT22;6145;50.192;10.064;2023-04-29T02:55:28;10.80;90.90
12164;DHT22;6145;50.192;10.064;2023-04-29T02:57:55;10.80;90.90
12164;DHT22;6145;50.192;10.064;2023-04-29T03:00:22;10.80;90.80
12164;DHT22;6145;50.192;10.064;2023-04-29T03:02:49;10.80;90.80
12164;DHT22;6145;50.192;10.064;2023-04-29T03:05:17;10.80;90.80
12164;DHT22;6145;50.192;10.064;2023-04-29T03:07:44;10.90;90.80
12164;DHT22;6145;50.192;10.064;2023-04-29T03:10:11;10.90;90.60
12164;DHT22;6145;50.192;10.064;2023-04-29T03:12:38;11.00;90.90
12164;DHT22;6145;50.192;10.064;2023-04-29T03:15:06;10.80;90.40
12164;DHT22;6145;50.192;10.064;2023-04-29T03:17:34;10.80;90.30
12164;DHT22;6145;50.192;10.064;2023-04-29T03:20:01;10.80;90.20
12164;DHT22;6145;50.192;10.064;2023-04-29T03:22:30;10.80;90.20
12164;DHT22;6145;50.192;10.064;2023-04-29T03:24:57;10.80;90.10
12164;DHT22;6145;50.192;10.064;2023-04-29T03:27:23;10.80;90.20
12164;DHT22;6145;50.192;10.064;2023-04-29T03:29:50;10.80;90.20
12164;DHT22;6145;50.192;10.064;2023-04-29T03:32:17;10.80;90.60
12164;DHT22;6145;50.192;10.064;2023-04-29T03:34:44;10.80;90.30
12164;DHT22;6145;50.192;10.064;2023-04-29T03:37:10;10.80;90.50
12164;DHT22;6145;50.192;10.064;2023-04-29T03:39:39;10.70;90.60
12164;DHT22;6145;50.192;10.064;2023-04-29T03:42:05;10.60;90.80
12164;DHT22;6145;50.192;10.064;2023-04-29T03:44:32;10.60;90.90
12164;DHT22;6145;50.192;10.064;2023-04-29T03:46:59;10.70;91.30
12164;DHT22;6145;50.192;10.064;2023-04-29T03:49:28;10.50;91.30
12164;DHT22;6145;50.192;10.064;2023-04-29T03:51:55;10.50;91.50
12164;DHT22;6145;50.192;10.064;2023-04-29T03:54:22;10.60;91.70
12164;DHT22;6145;50.192;10.064;2023-04-29T03:56:50;10.40;91.80
12164;DHT22;6145;50.192;10.064;2023-04-29T03:59:17;11.40;92.40
12164;DHT22;6145;50.192;10.064;2023-04-29T04:01:44;10.40;92.10
12164;DHT22;6145;50.192;10.064;2023-04-29T04:04:11;10.40;92.30
12164;DHT22;6145;50.192;10.064;2023-04-29T04:06:38;10.50;92.40
12164;DHT22;6145;50.192;10.064;2023-04-29T04:09:04;10.50;92.80
12164;DHT22;6145;50.192;10.064;2023-04-29T04:11:32;10.60;92.90
12164;DHT22;6145;50.192;10.064;2023-04-29T04:14:01;10.50;92.90
12164;DHT22;6145;50.192;10.064;2023-04-29T04:16:27;10.50;93.20
12164;DHT22;6145;50.192;10.064;2023-04-29T04:18:55;11.60;93.60
12164;DHT22;6145;50.192;10.064;2023-04-29T04:21:21;10.50;93.20
12164;DHT22;6145;50.192;10.064;2023-04-29T04:23:48;10.50;93.20
12164;DHT22;6145;50.192;10.064;2023-04-29T04:26:15;10.60;93.20
12164;DHT22;6145;50.192;10.064;2023-04-29T04:28:43;10.60;93.20
12164;DHT22;6145;50.192;10.064;2023-04-29T04:31:11;10.70;93.40
12164;DHT22;6145;50.192;10.064;2023-04-29T04:33:39;11.00;93.50
12164;DHT22;6145;50.192;10.064;2023-04-29T04:36:06;10.70;93.50
12164;DHT22;6145;50.192;10.064;2023-04-29T04:38:33;10.60;93.60
12164;DHT22;6145;50.192;10.064;2023-04-29T04:40:59;10.60;93.70
12164;DHT22;6145;50.192;10.064;2023-04-29T04:43:27;10.60;93.90
12164;DHT22;6145;50.192;10.064;2023-04-29T04:45:53;10.60;94.10
12164;DHT22;6145;50.192;10.064;2023-04-29T04:48:22;10.60;94.20
12164;DHT22;6145;50.192;10.064;2023-04-29T04:50:48;10.60;94.30
12164;DHT22;6145;50.192;10.064;2023-04-29T04:53:15;10.70;94.50
12164;DHT22;6145;50.192;10.064;2023-04-29T04:55:42;10.60;94.60
12164;DHT22;6145;50.192;10.064;2023-04-29T04:58:26;10.60;95.00
12164;DHT22;6145;50.192;10.064;2023-04-29T05:00:53;10.60;94.80
12164;DHT22;6145;50.192;10.064;2023-04-29T05:03:22;10.80;94.80
12164;DHT22;6145;50.192;10.064;2023-04-29T05:05:52;10.70;94.80
12164;DHT22;6145;50.192;10.064;2023-04-29T05:08:19;10.80;94.70
12164;DHT22;6145;50.192;10.064;2023-04-29T05:10:46;10.80;94.80
12164;DHT22;6145;50.192;10.064;2023-04-29T05:13:13;11.20;94.80
12164;DHT22;6145;50.192;10.064;2023-04-29T05:15:40;10.90;94.70
12164;DHT22;6145;50.192;10.064;2023-04-29T05:18:07;11.30;94.70
12164;DHT22;6145;50.192;10.064;2023-04-29T05:20:35;11.00;94.90
12164;DHT22;6145;50.192;10.064;2023-04-29T05:23:02;12.40;95.20
12164;DHT22;6145;50.192;10.064;2023-04-29T05:25:29;11.00;94.50
12164;DHT22;6145;50.192;10.064;2023-04-29T05:27:56;11.10;94.50
12164;DHT22;6145;50.192;10.064;2023-04-29T05:30:23;11.10;94.50
12164;DHT22;6145;50.192;10.064;2023-04-29T05:32:50;11.10;94.60
12164;DHT22;6145;50.192;10.064;2023-04-29T05:35:16;11.10;94.60
12164;DHT22;6145;50.192;10.064;2023-04-29T05:37:45;11.20;94.80
12164;DHT22;6145;50.192;10.064;2023-04-29T05:40:12;11.70;95.20
12164;DHT22;6145;50.192;10.064;2023-04-29T05:42:38;12.20;95.70
12164;DHT22;6145;50.192;10.064;2023-04-29T05:45:07;11.30;95.40
12164;DHT22;6145;50.192;10.064;2023-04-29T05:47:34;11.30;95.70
12164;DHT22;6145;50.192;10.064;2023-04-29T05:50:00;11.40;95.90
12164;DHT22;6145;50.192;10.064;2023-04-29T05:52:28;11.40;95.90
12164;DHT22;6145;50.192;10.064;2023-04-29T05:54:56;11.60;96.40
12164;DHT22;6145;50.192;10.064;2023-04-29T05:57:23;11.60;96.10
12164;DHT22;6145;50.192;10.064;2023-04-29T05:59:50;11.60;96.30
12164;DHT22;6145;50.192;10.064;2023-04-29T06:02:19;12.00;96.60
12164;DHT22;6145;50.192;10.064;2023-04-29T06:04:46;11.80;96.40
12164;DHT22;6145;50.192;10.064;2023-04-29T06:07:13;11.90;96.30
12164;DHT22;6145;50.192;10.064;2023-04-29T06:09:40;11.80;96.10
12164;DHT22;6145;50.192;10.064;2023-04-29T06:12:08;12.00;96.20
12164;DHT22;6145;50.192;10.064;2023-04-29T06:14:35;12.10;96.00
12164;DHT22;6145;50.192;10.064;2023-04-29T06:17:02;12.10;95.80
12164;DHT22;6145;50.192;10.064;2023-04-29T06:19:29;12.10;95.70
12164;DHT22;6145;50.192;10.064;2023-04-29T06:21:57;12.20;95.40
12164;DHT22;6145;50.192;10.064;2023-04-29T06:24:24;12.20;95.10
12164;DHT22;6145;50.192;10.064;2023-04-29T06:26:51;12.30;95.10
12164;DHT22;6145;50.192;10.064;2023-04-29T06:29:19;12.30;94.80
12164;DHT22;6145;50.192;10.064;2023-04-29T06:31:46;12.40;94.70
12164;DHT22;6145;50.192;10.064;2023-04-29T06:34:13;13.40;95.00
12164;DHT22;6145;50.192;10.064;2023-04-29T06:36:43;12.50;94.40
12164;DHT22;6145;50.192;10.064;2023-04-29T06:39:09;12.60;94.30
12164;DHT22;6145;50.192;10.064;2023-04-29T06:41:36;12.60;94.20
12164;DHT22;6145;50.192;10.064;2023-04-29T06:44:03;12.70;94.00
12164;DHT22;6145;50.192;10.064;2023-04-29T06:46:32;12.70;93.90
12164;DHT22;6145;50.192;10.064;2023-04-29T06:48:58;12.80;93.60
12164;DHT22;6145;50.192;10.064;2023-04-29T06:51:25;13.40;93.80
12164;DHT22;6145;50.192;10.064;2023-04-29T06:53:52;12.90;93.50
12164;DHT22;6145;50.192;10.064;2023-04-29T06:56:19;12.90;93.30
12164;DHT22;6145;50.192;10.064;2023-04-29T06:58:46;13.00;93.20
12164;DHT22;6145;50.192;10.064;2023-04-29T07:01:13;12.90;92.70
12164;DHT22;6145;50.192;10.064;2023-04-29T07:03:44;13.10;92.80
12164;DHT22;6145;50.192;10.064;2023-04-29T07:06:11;13.10;92.20
12164;DHT22;6145;50.192;10.064;2023-04-29T07:08:38;13.20;92.30
12164;DHT22;6145;50.192;10.064;2023-04-29T07:11:05;13.70;92.60
12164;DHT22;6145;50.192;10.064;2023-04-29T07:13:31;13.30;92.20
12164;DHT22;6145;50.192;10.064;2023-04-29T07:15:58;13.40;92.20
12164;DHT22;6145;50.192;10.064;2023-04-29T07:18:25;13.40;92.20
12164;DHT22;6145;50.192;10.064;2023-04-29T07:20:53;13.40;92.00
12164;DHT22;6145;50.192;10.064;2023-04-29T07:23:20;13.50;91.90
12164;DHT22;6145;50.192;10.064;2023-04-29T07:25:47;13.60;92.00
12164;DHT22;6145;50.192;10.064;2023-04-29T07:28:14;13.80;92.00
12164;DHT22;6145;50.192;10.064;2023-04-29T07:30:41;13.70;91.70
12164;DHT22;6145;50.192;10.064;2023-04-29T07:33:11;13.90;91.70
12164;DHT22;6145;50.192;10.064;2023-04-29T07:35:38;13.90;91.60
12164;DHT22;6145;50.192;10.064;2023-04-29T07:38:07;13.90;91.50
12164;DHT22;6145;50.192;10.064;2023-04-29T07:40:34;14.00;91.30
12164;DHT22;6145;50.192;10.064;2023-04-29T07:43:01;14.10;91.00
12164;DHT22;6145;50.192;10.064;2023-04-29T07:45:31;14.20;91.00
12164;DHT22;6145;50.192;10.064;2023-04-29T07:47:58;14.20;90.70
12164;DHT22;6145;50.192;10.064;2023-04-29T07:50:25;15.80;91.30
12164;DHT22;6145;50.192;10.064;2023-04-29T07:52:52;14.30;90.60
12164;DHT22;6145;50.192;10.064;2023-04-29T07:55:21;14.30;90.50
12164;DHT22;6145;50.192;10.064;2023-04-29T07:57:48;14.40;90.60
12164;DHT22;6145;50.192;10.064;2023-04-29T08:00:15;14.40;90.20
12164;DHT22;6145;50.192;10.064;2023-04-29T08:02:41;14.50;89.80
12164;DHT22;6145;50.192;10.064;2023-04-29T08:05:09;14.60;89.50
12164;DHT22;6145;50.192;10.064;2023-04-29T08:07:36;14.60;89.20
12164;DHT22;6145;50.192;10.064;2023-04-29T08:10:03;14.70;89.30
12164;DHT22;6145;50.192;10.064;2023-04-29T08:12:31;14.70;89.40
12164;DHT22;6145;50.192;10.064;2023-04-29T08:14:58;14.70;88.60
12164;DHT22;6145;50.192;10.064;2023-04-29T08:17:25;14.80;88.70
12164;DHT22;6145;50.192;10.064;2023-04-29T08:19:52;15.00;88.50
12164;DHT22;6145;50.192;10.064;2023-04-29T08:22:19;14.90;88.20
12164;DHT22;6145;50.192;10.064;2023-04-29T08:24:46;15.00;88.10
12164;DHT22;6145;50.192;10.064;2023-04-29T08:27:13;15.10;88.00
12164;DHT22;6145;50.192;10.064;2023-04-29T08:29:42;15.20;87.70
12164;DHT22;6145;50.192;10.064;2023-04-29T08:32:09;15.20;87.30
12164;DHT22;6145;50.192;10.064;2023-04-29T08:34:35;15.20;86.90
12164;DHT22;6145;50.192;10.064;2023-04-29T08:37:02;15.30;86.20
12164;DHT22;6145;50.192;10.064;2023-04-29T08:39:29;15.30;86.00
12164;DHT22;6145;50.192;10.064;2023-04-29T08:41:57;15.30;85.70
12164;DHT22;6145;50.192;10.064;2023-04-29T08:44:25;15.40;85.40
12164;DHT22;6145;50.192;10.064;2023-04-29T08:46:54;15.40;84.50
12164;DHT22;6145;50.192;10.064;2023-04-29T08:49:22;15.40;84.50
12164;DHT22;6145;50.192;10.064;2023-04-29T08:51:51;15.40;84.50
12164;DHT22;6145;50.192;10.064;2023-04-29T08:54:18;15.40;84.20
12164;DHT22;6145;50.192;10.064;2023-04-29T08:56:45;15.50;84.30
12164;DHT22;6145;50.192;10.064;2023-04-29T08:59:13;15.40;83.50
12164;DHT22;6145;50.192;10.064;2023-04-29T09:01:42;15.40;82.90
12164;DHT22;6145;50.192;10.064;2023-04-29T09:04:15;16.70;84.20
12164;DHT22;6145;50.192;10.064;2023-04-29T09:06:46;15.90;83.30
12164;DHT22;6145;50.192;10.064;2023-04-29T09:09:13;15.40;82.10
12164;DHT22;6145;50.192;10.064;2023-04-29T09:11:41;15.40;81.90
12164;DHT22;6145;50.192;10.064;2023-04-29T09:14:08;15.40;81.80
12164;DHT22;6145;50.192;10.064;2023-04-29T09:16:35;15.30;81.70
12164;DHT22;6145;50.192;10.064;2023-04-29T09:19:03;15.30;81.60
12164;DHT22;6145;50.192;10.064;2023-04-29T09:21:32;15.20;81.40
12164;DHT22;6145;50.192;10.064;2023-04-29T09:23:59;15.30;81.50
12164;DHT22;6145;50.192;10.064;2023-04-29T09:26:27;15.20;81.40
12164;DHT22;6145;50.192;10.064;2023-04-29T09:29:06;15.20;81.60
12164;DHT22;6145;50.192;10.064;2023-04-29T09:31:36;15.20;81.50
12164;DHT22;6145;50.192;10.064;2023-04-29T09:34:03;15.10;81.00
12164;DHT22;6145;50.192;10.064;2023-04-29T09:36:53;15.10;80.80
12164;DHT22;6145;50.192;10.064;2023-04-29T09:39:24;15.10;80.60
12164;DHT22;6145;50.192;10.064;2023-04-29T09:41:59;15.10;81.30
12164;DHT22;6145;50.192;10.064;2023-04-29T09:44:29;15.10;81.10
12164;DHT22;6145;50.192;10.064;2023-04-29T09:46:59;15.10;81.20
12164;DHT22;6145;50.192;10.064;2023-04-29T09:49:28;15.10;81.10
12164;DHT22;6145;50.192;10.064;2023-04-29T09:52:03;15.10;81.10
12164;DHT22;6145;50.192;10.064;2023-04-29T09:54:31;15.00;81.20
12164;DHT22;6145;50.192;10.064;2023-04-29T09:56:59;15.10;81.50
12164;DHT22;6145;50.192;10.064;2023-04-29T09:59:38;15.00;81.30
12164;DHT22;6145;50.192;10.064;2023-04-29T10:02:10;15.20;82.10
12164;DHT22;6145;50.192;10.064;2023-04-29T10:04:40;15.10;81.40
12164;DHT22;6145;50.192;10.064;2023-04-29T10:07:13;16.10;82.40
12164;DHT22;6145;50.192;10.064;2023-04-29T10:09:40;15.10;81.10
12164;DHT22;6145;50.192;10.064;2023-04-29T10:12:08;15.20;81.40
12164;DHT22;6145;50.192;10.064;2023-04-29T10:14:39;15.20;81.10
12164;DHT22;6145;50.192;10.064;2023-04-29T10:17:12;15.20;81.00
12164;DHT22;6145;50.192;10.064;2023-04-29T10:19:46;15.80;81.70
12164;DHT22;6145;50.192;10.064;2023-04-29T10:22:24;15.20;80.70
12164;DHT22;6145;50.192;10.064;2023-04-29T10:24:52;15.10;80.70
12164;DHT22;6145;50.192;10.064;2023-04-29T10:27:21;15.30;81.10
12164;DHT22;6145;50.192;10.064;2023-04-29T10:29:50;15.40;81.20
12164;DHT22;6145;50.192;10.064;2023-04-29T10:32:21;15.30;81.10
12164;DHT22;6145;50.192;10.064;2023-04-29T10:34:50;15.40;81.00
12164;DHT22;6145;50.192;10.064;2023-04-29T10:37:19;15.30;80.90
12164;DHT22;6145;50.192;10.064;2023-04-29T10:39:52;16.20;81.70
12164;DHT22;6145;50.192;10.064;2023-04-29T10:42:30;15.40;80.80
12164;DHT22;6145;50.192;10.064;2023-04-29T10:45:22;15.50;80.70
12164;DHT22;6145;50.192;10.064;2023-04-29T10:48:09;15.50;80.90
12164;DHT22;6145;50.192;10.064;2023-04-29T10:51:01;15.50;80.40
12164;DHT22;6145;50.192;10.064;2023-04-29T10:53:30;15.50;79.90
12164;DHT22;6145;50.192;10.064;2023-04-29T10:56:02;15.50;79.40
12164;DHT22;6145;50.192;10.064;2023-04-29T10:58:40;15.50;79.20
12164;DHT22;6145;50.192;10.064;2023-04-29T11:01:10;15.60;78.70
12164;DHT22;6145;50.192;10.064;2023-04-29T11:03:51;16.10;79.00
12164;DHT22;6145;50.192;10.064;2023-04-29T11:06:25;15.50;78.70
12164;DHT22;6145;50.192;10.064;2023-04-29T11:09:09;15.40;78.90
12164;DHT22;6145;50.192;10.064;2023-04-29T11:11:43;15.60;79.00
12164;DHT22;6145;50.192;10.064;2023-04-29T11:14:12;15.60;78.90
12164;DHT22;6145;50.192;10.064;2023-04-29T11:16:47;15.60;79.00
12164;DHT22;6145;50.192;10.064;2023-04-29T11:19:15;15.70;78.80
12164;DHT22;6145;50.192;10.064;2023-04-29T11:21:43;15.70;79.00
12164;DHT22;6145;50.192;10.064;2023-04-29T11:24:12;15.70;78.90
12164;DHT22;6145;50.192;10.064;2023-04-29T11:26:40;16.00;79.00
12164;DHT22;6145;50.192;10.064;2023-04-29T11:29:08;15.70;78.20
12164;DHT22;6145;50.192;10.064;2023-04-29T11:31:36;15.70;78.50
12164;DHT22;6145;50.192;10.064;2023-04-29T11:34:04;15.60;78.90
12164;DHT22;6145;50.192;10.064;2023-04-29T11:36:32;15.70;79.20
12164;DHT22;6145;50.192;10.064;2023-04-29T11:38:59;15.60;79.20
12164;DHT22;6145;50.192;10.064;2023-04-29T11:41:28;15.80;79.40
12164;DHT22;6145;50.192;10.064;2023-04-29T11:43:57;15.60;79.20
12164;DHT22;6145;50.192;10.064;2023-04-29T11:46:24;16.50;80.30
12164;DHT22;6145;50.192;10.064;2023-04-29T11:48:53;15.50;79.20
12164;DHT22;6145;50.192;10.064;2023-04-29T11:51:20;15.50;79.20
12164;DHT22;6145;50.192;10.064;2023-04-29T11:53:47;15.50;79.40
12164;DHT22;6145;50.192;10.064;2023-04-29T11:56:14;15.50;79.50
12164;DHT22;6145;50.192;10.064;2023-04-29T11:58:42;15.40;79.60
12164;DHT22;6145;50.192;10.064;2023-04-29T12:01:10;15.40;80.10
12164;DHT22;6145;50.192;10.064;2023-04-29T12:03:37;16.20;81.10
12164;DHT22;6145;50.192;10.064;2023-04-29T12:06:04;15.40;80.00
12164;DHT22;6145;50.192;10.064;2023-04-29T12:08:31;15.40;80.30
12164;DHT22;6145;50.192;10.064;2023-04-29T12:10:59;15.60;81.00
12164;DHT22;6145;50.192;10.064;2023-04-29T12:13:30;15.50;80.50
12164;DHT22;6145;50.192;10.064;2023-04-29T12:15:59;15.50;81.10
12164;DHT22;6145;50.192;10.064;2023-04-29T12:18:26;15.50;81.20
12164;DHT22;6145;50.192;10.064;2023-04-29T12:20:55;15.50;81.10
12164;DHT22;6145;50.192;10.064;2023-04-29T12:23:24;15.60;80.40
12164;DHT22;6145;50.192;10.064;2023-04-29T12:25:53;15.60;80.30
12164;DHT22;6145;50.192;10.064;2023-04-29T12:28:21;15.70;79.80
12164;DHT22;6145;50.192;10.064;2023-04-29T12:30:49;15.70;79.80
12164;DHT22;6145;50.192;10.064;2023-04-29T12:33:23;15.70;79.50
12164;DHT22;6145;50.192;10.064;2023-04-29T12:35:53;15.70;79.50
12164;DHT22;6145;50.192;10.064;2023-04-29T12:38:21;15.80;79.30
12164;DHT22;6145;50.192;10.064;2023-04-29T12:40:48;15.90;79.00
12164;DHT22;6145;50.192;10.064;2023-04-29T12:43:15;15.90;79.50
12164;DHT22;6145;50.192;10.064;2023-04-29T12:45:43;16.10;78.80
12164;DHT22;6145;50.192;10.064;2023-04-29T12:48:30;15.90;78.40
12164;DHT22;6145;50.192;10.064;2023-04-29T12:50:57;16.00;78.00
12164;DHT22;6145;50.192;10.064;2023-04-29T12:53:25;15.80;77.80
12164;DHT22;6145;50.192;10.064;2023-04-29T12:55:52;15.80;77.50
12164;DHT22;6145;50.192;10.064;2023-04-29T12:58:19;15.90;77.90
12164;DHT22;6145;50.192;10.064;2023-04-29T13:00:46;15.80;77.80
12164;DHT22;6145;50.192;10.064;2023-04-29T13:03:15;15.80;77.40
12164;DHT22;6145;50.192;10.064;2023-04-29T13:05:44;15.80;77.30
12164;DHT22;6145;50.192;10.064;2023-04-29T13:08:13;15.90;77.30
12164;DHT22;6145;50.192;10.064;2023-04-29T13:10:40;15.90;78.10
12164;DHT22;6145;50.192;10.064;2023-04-29T13:13:21;15.90;77.30
12164;DHT22;6145;50.192;10.064;2023-04-29T13:15:48;15.90;77.20
12164;DHT22;6145;50.192;10.064;2023-04-29T13:18:28;16.60;78.30
12164;DHT22;6145;50.192;10.064;2023-04-29T13:21:10;16.10;77.50
12164;DHT22;6145;50.192;10.064;2023-04-29T13:23:37;16.00;77.40
12164;DHT22;6145;50.192;10.064;2023-04-29T13:26:04;16.00;77.00
12164;DHT22;6145;50.192;10.064;2023-04-29T13:28:33;16.10;76.20
12164;DHT22;6145;50.192;10.064;2023-04-29T13:31:00;16.10;76.80
12164;DHT22;6145;50.192;10.064;2023-04-29T13:33:27;16.30;76.60
12164;DHT22;6145;50.192;10.064;2023-04-29T13:35:54;16.10;75.80
12164;DHT22;6145;50.192;10.064;2023-04-29T13:38:22;16.20;76.20
12164;DHT22;6145;50.192;10.064;2023-04-29T13:40:49;16.20;76.10
12164;DHT22;6145;50.192;10.064;2023-04-29T13:43:16;16.20;76.10
12164;DHT22;6145;50.192;10.064;2023-04-29T13:45:43;16.20;76.20
12164;DHT22;6145;50.192;10.064;2023-04-29T13:48:10;16.30;75.40
12164;DHT22;6145;50.192;10.064;2023-04-29T13:50:41;16.80;76.00
12164;DHT22;6145;50.192;10.064;2023-04-29T13:53:09;16.30;75.20
12164;DHT22;6145;50.192;10.064;2023-04-29T13:55:38;16.30;75.30
12164;DHT22;6145;50.192;10.064;2023-04-29T13:58:08;16.30;75.40
12164;DHT22;6145;50.192;10.064;2023-04-29T14:00:34;17.40;76.00
12164;DHT22;6145;50.192;10.064;2023-04-29T14:03:03;16.20;75.10
12164;DHT22;6145;50.192;10.064;2023-04-29T14:05:32;16.30;74.60
12164;DHT22;6145;50.192;10.064;2023-04-29T14:07:59;16.40;74.00
12164;DHT22;6145;50.192;10.064;2023-04-29T14:10:26;16.30;74.10
12164;DHT22;6145;50.192;10.064;2023-04-29T14:12:55;16.30;74.50
12164;DHT22;6145;50.192;10.064;2023-04-29T14:15:22;16.30;74.20
12164;DHT22;6145;50.192;10.064;2023-04-29T14:17:49;16.30;74.30
12164;DHT22;6145;50.192;10.064;2023-04-29T14:20:17;16.30;74.40
12164;DHT22;6145;50.192;10.064;2023-04-29T14:22:44;16.30;74.20
12164;DHT22;6145;50.192;10.064;2023-04-29T14:25:11;16.30;74.00
12164;DHT22;6145;50.192;10.064;2023-04-29T14:27:38;16.30;73.90
12164;DHT22;6145;50.192;10.064;2023-04-29T14:30:09;16.40;73.60
12164;DHT22;6145;50.192;10.064;2023-04-29T14:32:36;16.30;73.60
12164;DHT22;6145;50.192;10.064;2023-04-29T14:35:03;16.20;73.40
12164;DHT22;6145;50.192;10.064;2023-04-29T14:37:30;16.20;73.10
12164;DHT22;6145;50.192;10.064;2023-04-29T14:39:57;16.20;72.80
12164;DHT22;6145;50.192;10.064;2023-04-29T14:42:24;16.30;73.60
12164;DHT22;6145;50.192;10.064;2023-04-29T14:44:51;16.20;73.30
12164;DHT22;6145;50.192;10.064;2023-04-29T14:47:20;16.10;72.80
12164;DHT22;6145;50.192;10.064;2023-04-29T14:49:47;16.10;72.50
12164;DHT22;6145;50.192;10.064;2023-04-29T14:52:14;16.10;72.20
12164;DHT22;6145;50.192;10.064;2023-04-29T14:54:41;16.10;72.40
12164;DHT22;6145;50.192;10.064;2023-04-29T14:57:08;16.20;72.90
12164;DHT22;6145;50.192;10.064;2023-04-29T14:59:35;16.10;72.70
12164;DHT22;6145;50.192;10.064;2023-04-29T15:02:02;16.10;72.40
12164;DHT22;6145;50.192;10.064;2023-04-29T15:04:30;16.00;72.10
12164;DHT22;6145;50.192;10.064;2023-04-29T15:06:57;16.20;71.80
12164;DHT22;6145;50.192;10.064;2023-04-29T15:09:24;16.20;71.50
12164;DHT22;6145;50.192;10.064;2023-04-29T15:11:51;16.10;72.20
12164;DHT22;6145;50.192;10.064;2023-04-29T15:14:18;16.10;72.10
12164;DHT22;6145;50.192;10.064;2023-04-29T15:16:45;17.70;73.90
12164;DHT22;6145;50.192;10.064;2023-04-29T15:19:13;16.00;71.80
12164;DHT22;6145;50.192;10.064;2023-04-29T15:21:41;15.90;71.50
12164;DHT22;6145;50.192;10.064;2023-04-29T15:24:08;16.20;72.40
12164;DHT22;6145;50.192;10.064;2023-04-29T15:26:35;17.70;73.90
12164;DHT22;6145;50.192;10.064;2023-04-29T15:29:02;16.00;72.00
12164;DHT22;6145;50.192;10.064;2023-04-29T15:31:29;16.10;72.30
12164;DHT22;6145;50.192;10.064;2023-04-29T15:33:56;16.50;72.70
12164;DHT22;6145;50.192;10.064;2023-04-29T15:36:26;16.40;72.60
12164;DHT22;6145;50.192;10.064;2023-04-29T15:38:56;16.10;71.20